Time;durP1;ratioP1;P1;durP2;ratioP2;P2;SDS_P1;SDS_P2;PMS_P1;PMS_P2;Temp;Humidity;BMP_temperature;BMP_pressure;BME280_temperature;BME280_humidity;BME280_pressure;Samples;Min_cycle;Max_cycle;Signal;HPM_P1;HPM_P2
2021/10/28 00:14:04;;;;;;;49.35;20.73;;;;;;;;;;8278767;28;20075;-69
2021/10/28 00:18:12;;;;;;;52.97;23.48;;;;;;;;;;8288870;28;20041;-70
2021/10/28 00:22:17;;;;;;;59.17;24.20;;;;;;;;;;8290037;28;20479;-70
2021/10/28 00:26:23;;;;;;;49.50;22.73;;;;;;;;;;8296640;28;21011;-70
2021/10/28 00:30:28;;;;;;;64.40;22.02;;;;;;;;;;8296383;28;20037;-69
2021/10/28 00:34:33;;;;;;;56.90;24.25;;;;;;;;;;8295943;28;20455;-70
2021/10/28 00:38:39;;;;;;;54.25;23.20;;;;;;;;;;8298157;28;20049;-70
2021/10/28 00:42:44;;;;;;;48.95;21.55;;;;;;;;;;8294456;28;20490;-70
2021/10/28 00:46:50;;;;;;;48.63;23.25;;;;;;;;;;8298617;28;20375;-72
2021/10/28 00:50:55;;;;;;;55.63;23.65;;;;;;;;;;8297427;28;20412;-70
2021/10/28 00:55:01;;;;;;;64.15;24.67;;;;;;;;;;8294434;28;20351;-69
2021/10/28 00:59:06;;;;;;;54.05;25.45;;;;;;;;;;8294503;28;20359;-71
2021/10/28 01:03:11;;;;;;;56.20;24.50;;;;;;;;;;8294595;28;20044;-69
2021/10/28 01:07:17;;;;;;;51.70;22.90;;;;;;;;;;8296275;28;20440;-70
2021/10/28 01:11:25;;;;;;;73.68;29.60;;;;;;;;;;8297307;28;20368;-70
2021/10/28 01:15:30;;;;;;;60.00;27.88;;;;;;;;;;8295280;28;20367;-69
2021/10/28 01:19:35;;;;;;;60.30;25.65;;;;;;;;;;8292916;28;20478;-70
2021/10/28 01:23:43;;;;;;;61.85;27.20;;;;;;;;;;8296260;28;20348;-69
2021/10/28 01:27:48;;;;;;;58.85;24.77;;;;;;;;;;8293268;28;20070;-70
2021/10/28 01:31:55;;;;;;;61.50;24.40;;;;;;;;;;8294680;28;20501;-70
2021/10/28 01:36:01;;;;;;;56.47;23.70;;;;;;;;;;8293275;28;20466;-69
2021/10/28 01:40:07;;;;;;;65.47;25.48;;;;;;;;;;8277676;28;20394;-69
2021/10/28 01:44:12;;;;;;;58.38;26.90;;;;;;;;;;8297029;28;20102;-70
2021/10/28 01:48:18;;;;;;;68.72;29.50;;;;;;;;;;8293745;28;20041;-69
2021/10/28 01:52:24;;;;;;;62.15;27.13;;;;;;;;;;8292689;28;20546;-70
2021/10/28 01:56:29;;;;;;;69.18;26.05;;;;;;;;;;8294821;28;20341;-70
2021/10/28 02:00:36;;;;;;;59.33;25.38;;;;;;;;;;8293545;28;20390;-70
2021/10/28 02:04:42;;;;;;;61.45;25.35;;;;;;;;;;8275501;28;20329;-70
2021/10/28 02:08:47;;;;;;;58.78;25.95;;;;;;;;;;8293280;28;20341;-70
2021/10/28 02:12:56;;;;;;;72.50;28.27;;;;;;;;;;8295558;28;20352;-70
2021/10/28 02:17:00;;;;;;;;;;;;;;;;;;8293548;28;20510;-69
2021/10/28 02:21:06;;;;;;;60.55;23.30;;;;;;;;;;8292509;28;20328;-70
2021/10/28 02:25:13;;;;;;;59.70;24.85;;;;;;;;;;8292979;28;20350;-69
2021/10/28 02:29:27;;;;;;;48.72;22.52;;;;;;;;;;8291989;28;20362;-69
2021/10/28 02:33:32;;;;;;;44.08;19.80;;;;;;;;;;8292402;28;20453;-69
2021/10/28 02:37:37;;;;;;;44.33;20.40;;;;;;;;;;8290992;28;20032;-70
2021/10/28 02:41:43;;;;;;;38.67;18.85;;;;;;;;;;8291239;28;20359;-70
2021/10/28 02:45:50;;;;;;;41.67;19.00;;;;;;;;;;8289644;28;20448;-71
2021/10/28 02:49:55;;;;;;;41.78;18.15;;;;;;;;;;8273972;28;20471;-70
2021/10/28 02:54:00;;;;;;;64.28;18.02;;;;;;;;;;8289851;28;20045;-69
2021/10/28 02:58:05;;;;;;;57.60;18.50;;;;;;;;;;8274832;28;20041;-71
2021/10/28 03:02:11;;;;;;;57.35;18.25;;;;;;;;;;8289446;28;20410;-70
2021/10/28 03:06:17;;;;;;;67.38;19.88;;;;;;;;;;8291458;28;20356;-69
2021/10/28 03:10:23;;;;;;;120.25;20.83;;;;;;;;;;8307473;28;20451;-70
2021/10/28 03:14:33;;;;;;;55.85;20.73;;;;;;;;;;8291332;28;20364;-70
2021/10/28 03:27:23;;;;;;;47.83;20.52;;;;;;;;;;8290777;28;20044;-70
2021/10/28 03:31:28;;;;;;;46.92;20.17;;;;;;;;;;8290438;28;20078;-70
2021/10/28 03:35:39;;;;;;;46.20;22.10;;;;;;;;;;8292822;28;20367;-70
2021/10/28 03:40:03;;;;;;;80.18;22.98;;;;;;;;;;8289838;28;20096;-69
2021/10/28 03:44:37;;;;;;;63.63;21.30;;;;;;;;;;8290280;28;20095;-71
2021/10/28 04:19:51;;;;;;;74.45;37.67;;;;;;;;;;8265932;28;20490;-71
2021/10/28 04:32:42;;;;;;;55.45;22.63;;;;;;;;;;8289726;28;20360;-70
2021/10/28 04:36:53;;;;;;;62.28;21.38;;;;;;;;;;8288822;28;20467;-70
2021/10/28 04:40:58;;;;;;;47.80;21.25;;;;;;;;;;8289530;28;20049;-71
2021/10/28 04:45:05;;;;;;;51.55;21.17;;;;;;;;;;8288872;28;20382;-69
2021/10/28 04:49:11;;;;;;;54.42;23.58;;;;;;;;;;8289455;28;20344;-70
2021/10/28 04:53:16;;;;;;;49.88;20.33;;;;;;;;;;8289528;28;20348;-71
2021/10/28 04:57:22;;;;;;;60.17;25.08;;;;;;;;;;8288325;28;20513;-69
2021/10/28 05:01:27;;;;;;;51.20;22.88;;;;;;;;;;8288559;28;20040;-70
2021/10/28 05:05:33;;;;;;;58.05;23.10;;;;;;;;;;8289107;28;20070;-70
2021/10/28 05:09:40;;;;;;;59.63;23.45;;;;;;;;;;8288815;28;20052;-68
2021/10/28 05:13:47;;;;;;;67.20;20.02;;;;;;;;;;8295138;28;20059;-69
2021/10/28 05:17:52;;;;;;;76.63;23.27;;;;;;;;;;8293070;28;20053;-70
2021/10/28 05:21:57;;;;;;;46.55;20.20;;;;;;;;;;8294649;28;20482;-70
2021/10/28 05:26:02;;;;;;;63.17;27.10;;;;;;;;;;8294873;28;20356;-70
2021/10/28 05:30:08;;;;;;;49.42;22.27;;;;;;;;;;8293785;28;20049;-71
2021/10/28 05:34:13;;;;;;;58.45;23.58;;;;;;;;;;8294432;28;20347;-70
2021/10/28 05:38:19;;;;;;;59.45;26.75;;;;;;;;;;8296303;28;20350;-69
2021/10/28 05:42:26;;;;;;;62.35;26.25;;;;;;;;;;8293172;28;20497;-70
2021/10/28 05:46:30;;;;;;;58.47;27.23;;;;;;;;;;8293769;28;20397;-70
2021/10/28 05:50:35;;;;;;;51.83;26.10;;;;;;;;;;8294731;28;20448;-69
2021/10/28 05:54:41;;;;;;;58.90;26.95;;;;;;;;;;8293941;28;20474;-70
2021/10/28 05:58:46;;;;;;;62.33;22.30;;;;;;;;;;8295458;28;20390;-69
2021/10/28 06:02:52;;;;;;;61.92;25.08;;;;;;;;;;8274719;28;20486;-70
2021/10/28 06:06:58;;;;;;;60.08;25.52;;;;;;;;;;8294269;28;20460;-69
2021/10/28 06:11:03;;;;;;;70.18;27.20;;;;;;;;;;8294597;28;20439;-70
2021/10/28 06:15:10;;;;;;;63.90;26.80;;;;;;;;;;8292462;28;20468;-70
2021/10/28 06:19:16;;;;;;;50.88;23.67;;;;;;;;;;8292477;28;20448;-70
2021/10/28 06:23:21;;;;;;;50.05;22.65;;;;;;;;;;8294547;28;20486;-70
2021/10/28 06:27:26;;;;;;;56.30;25.73;;;;;;;;;;8291039;28;20348;-70
2021/10/28 06:31:31;;;;;;;33.33;17.35;;;;;;;;;;8292831;28;20394;-70
2021/10/28 06:35:42;;;;;;;34.42;17.05;;;;;;;;;;8292693;28;20455;-71
2021/10/28 06:39:47;;;;;;;32.13;17.30;;;;;;;;;;8292456;28;20374;-71
2021/10/28 06:43:52;;;;;;;43.97;17.92;;;;;;;;;;8292883;28;20360;-70
2021/10/28 06:47:59;;;;;;;34.67;16.73;;;;;;;;;;8290709;28;20394;-71
2021/10/28 06:52:07;;;;;;;32.17;15.23;;;;;;;;;;8291026;28;20349;-69
2021/10/28 06:56:35;;;;;;;30.42;14.57;;;;;;;;;;8292486;28;20475;-71
2021/10/28 07:05:04;;;;;;;39.72;20.48;;;;;;;;;;8291933;28;20340;-71
2021/10/28 07:09:18;;;;;;;35.60;19.45;;;;;;;;;;8290331;28;20435;-69
2021/10/28 07:13:26;;;;;;;43.40;21.77;;;;;;;;;;8291148;28;20376;-70
2021/10/28 07:17:34;;;;;;;72.68;32.38;;;;;;;;;;8291893;28;20393;-70
2021/10/28 07:22:10;;;;;;;122.93;49.50;;;;;;;;;;8291542;28;20464;-70
2021/10/28 07:26:26;;;;;;;127.15;48.22;;;;;;;;;;8290932;28;20045;-70
2021/10/28 07:30:44;;;;;;;95.20;40.35;;;;;;;;;;8290605;28;20383;-72
2021/10/28 07:35:02;;;;;;;;;;;;;;;;;;8292906;28;20451;-72
2021/10/28 07:57:22;;;;;;;116.85;59.55;;;;;;;;;;8289445;28;20470;-69
2021/10/28 08:19:44;;;;;;;30.95;16.67;;;;;;;;;;8291073;28;20474;-71
2021/10/28 08:23:59;;;;;;;30.75;17.30;;;;;;;;;;8291105;28;20375;-72
2021/10/28 08:32:27;;;;;;;22.02;13.07;;;;;;;;;;8288225;28;20468;-70
2021/10/28 08:36:38;;;;;;;27.65;13.57;;;;;;;;;;8289941;28;20036;-72
2021/10/28 08:40:43;;;;;;;24.30;11.82;;;;;;;;;;8290471;28;20460;-70
2021/10/28 08:44:52;;;;;;;19.95;10.75;;;;;;;;;;8290500;28;20464;-72
2021/10/28 08:49:02;;;;;;;25.15;10.82;;;;;;;;;;8293849;28;20459;-71
2021/10/28 09:23:53;;;;;;;17.43;8.00;;;;;;;;;;8293721;28;20102;-72
2021/10/28 09:24:17;;;;;;;14.93;8.27;;;;;;;;;;8295961;28;20585;-70
2021/10/28 09:28:32;;;;;;;19.15;8.07;;;;;;;;;;8278297;28;20060;-72
2021/10/28 09:32:44;;;;;;;15.55;7.43;;;;;;;;;;8279222;28;20097;-70
2021/10/28 09:46:07;;;;;;;15.82;6.97;;;;;;;;;;8307523;28;20041;-69
2021/10/28 09:50:16;;;;;;;13.27;7.40;;;;;;;;;;8293449;28;20477;-71
2021/10/28 09:54:47;;;;;;;18.65;8.55;;;;;;;;;;8296597;28;20363;-70
2021/10/28 09:59:05;;;;;;;14.70;7.70;;;;;;;;;;8293765;28;20052;-70
2021/10/28 10:03:14;;;;;;;17.30;8.05;;;;;;;;;;8293163;28;20053;-71
2021/10/28 10:07:21;;;;;;;11.52;6.70;;;;;;;;;;8292761;28;20440;-71
2021/10/28 10:11:27;;;;;;;16.40;6.40;;;;;;;;;;8277025;28;20444;-73
2021/10/28 10:15:33;;;;;;;8.38;3.88;;;;;;;;;;8291545;28;20448;-70
2021/10/28 10:19:45;;;;;;;9.95;4.97;;;;;;;;;;8294281;28;20347;-72
2021/10/28 10:24:20;;;;;;;8.60;4.35;;;;;;;;;;8291964;28;20341;-71
2021/10/28 11:05:53;;;;;;;3.92;1.92;;;;;;;;;;8292332;28;20455;-73
2021/10/28 11:29:06;;;;;;;2.83;1.50;;;;;;;;;;8289699;28;20041;-71
2021/10/28 12:44:16;;;;;;;4.82;2.47;;;;;;;;;;8294678;28;20443;-71
2021/10/28 12:53:10;;;;;;;4.68;2.75;;;;;;;;;;8294246;28;20487;-70
2021/10/28 13:06:43;;;;;;;4.80;3.00;;;;;;;;;;8279829;28;20455;-71
2021/10/28 13:50:42;;;;;;;12.35;5.57;;;;;;;;;;8261826;28;20464;-70
2021/10/28 15:28:59;;;;;;;74.93;33.13;;;;;;;;;;8258376;28;20045;-69
2021/10/28 15:37:40;;;;;;;63.55;22.45;;;;;;;;;;8259420;28;20103;-71
2021/10/28 15:42:18;;;;;;;93.03;37.33;;;;;;;;;;8257474;28;20494;-70
2021/10/28 15:59:49;;;;;;;47.25;17.50;;;;;;;;;;8248270;28;20053;-69
2021/10/28 16:21:54;;;;;;;64.65;20.75;;;;;;;;;;8255922;28;20440;-70
2021/10/28 16:26:02;;;;;;;20.42;9.30;;;;;;;;;;8257815;28;20387;-70
2021/10/28 16:30:09;;;;;;;23.83;7.65;;;;;;;;;;8259414;28;20360;-68
2021/10/28 16:34:16;;;;;;;23.42;8.13;;;;;;;;;;8256411;28;20468;-68
2021/10/28 16:38:23;;;;;;;14.48;7.10;;;;;;;;;;8272269;28;20334;-69
2021/10/28 16:42:30;;;;;;;26.40;11.70;;;;;;;;;;8254988;28;20045;-69
2021/10/28 16:46:37;;;;;;;29.15;13.52;;;;;;;;;;8256616;28;20356;-69
2021/10/28 16:50:43;;;;;;;22.80;11.15;;;;;;;;;;8255947;28;20049;-70
2021/10/28 16:54:48;;;;;;;39.40;20.17;;;;;;;;;;8257423;28;20357;-69
2021/10/28 16:58:53;;;;;;;39.08;17.30;;;;;;;;;;8257199;28;20448;-68
2021/10/28 17:02:58;;;;;;;32.92;14.98;;;;;;;;;;8256083;28;20102;-68
2021/10/28 17:07:04;;;;;;;43.65;20.30;;;;;;;;;;8258757;28;20407;-69
2021/10/28 17:11:10;;;;;;;45.97;18.92;;;;;;;;;;8262231;28;20076;-69
2021/10/28 17:15:15;;;;;;;43.83;15.50;;;;;;;;;;8262386;28;20372;-68
2021/10/28 17:19:20;;;;;;;34.90;16.83;;;;;;;;;;8264330;28;20504;-69
2021/10/28 17:23:31;;;;;;;35.90;16.02;;;;;;;;;;8264408;28;20376;-68
2021/10/28 17:27:37;;;;;;;35.47;16.35;;;;;;;;;;8262803;28;20037;-68
2021/10/28 17:31:43;;;;;;;37.88;16.85;;;;;;;;;;8261935;28;20490;-68
2021/10/28 17:35:48;;;;;;;34.42;16.25;;;;;;;;;;8262443;28;20488;-69
2021/10/28 17:39:53;;;;;;;39.40;16.85;;;;;;;;;;8261940;28;20461;-69
2021/10/28 17:43:59;;;;;;;34.88;16.70;;;;;;;;;;8238019;28;20463;-69
2021/10/28 17:48:05;;;;;;;38.72;17.35;;;;;;;;;;8260666;28;20478;-69
2021/10/28 17:52:10;;;;;;;40.10;18.42;;;;;;;;;;8262189;28;20411;-68
2021/10/28 17:56:18;;;;;;;50.88;22.58;;;;;;;;;;8260614;28;20371;-70
2021/10/28 18:00:24;;;;;;;47.42;21.02;;;;;;;;;;8260974;28;20045;-69
2021/10/28 18:04:29;;;;;;;53.58;23.80;;;;;;;;;;8260915;28;20049;-69
2021/10/28 18:08:36;;;;;;;62.78;26.17;;;;;;;;;;8261804;28;20356;-70
2021/10/28 18:12:41;;;;;;;53.55;24.27;;;;;;;;;;8258806;28;20484;-70
2021/10/28 18:16:46;;;;;;;51.78;22.52;;;;;;;;;;8260367;28;20044;-69
2021/10/28 18:20:53;;;;;;;60.35;23.48;;;;;;;;;;8261389;28;20471;-70
2021/10/28 18:25:10;;;;;;;70.30;27.50;;;;;;;;;;8273204;28;20373;-70
2021/10/28 18:29:16;;;;;;;72.43;30.00;;;;;;;;;;8274883;28;20049;-69
2021/10/28 18:33:22;;;;;;;61.08;25.20;;;;;;;;;;8259886;28;20049;-70
2021/10/28 18:37:27;;;;;;;59.00;24.67;;;;;;;;;;8259754;28;20044;-69
2021/10/28 18:41:32;;;;;;;50.67;21.75;;;;;;;;;;8259630;28;20542;-69
2021/10/28 18:45:38;;;;;;;44.97;21.33;;;;;;;;;;8258661;28;20551;-69
2021/10/28 18:49:44;;;;;;;49.75;22.67;;;;;;;;;;8258457;28;20100;-69
2021/10/28 18:53:49;;;;;;;50.92;22.73;;;;;;;;;;8259050;28;20075;-69
2021/10/28 18:57:56;;;;;;;59.45;21.30;;;;;;;;;;8258188;28;20376;-68
2021/10/28 19:02:01;;;;;;;45.67;19.73;;;;;;;;;;8259346;28;20059;-69
2021/10/28 19:06:08;;;;;;;50.03;19.63;;;;;;;;;;8261066;28;20482;-70
2021/10/28 19:10:13;;;;;;;44.45;19.55;;;;;;;;;;8260272;28;20045;-69
2021/10/28 19:14:19;;;;;;;48.85;21.08;;;;;;;;;;8258701;28;20383;-71
2021/10/28 19:18:24;;;;;;;39.25;18.70;;;;;;;;;;8273646;28;20351;-70
2021/10/28 19:22:31;;;;;;;45.47;19.98;;;;;;;;;;8258985;28;20440;-71
2021/10/28 19:26:37;;;;;;;49.80;19.50;;;;;;;;;;8258778;28;20049;-69
2021/10/28 19:30:43;;;;;;;48.88;20.90;;;;;;;;;;8259461;28;20334;-70
2021/10/28 19:34:49;;;;;;;47.53;19.90;;;;;;;;;;8258762;28;20056;-71
2021/10/28 19:39:18;;;;;;;46.10;20.45;;;;;;;;;;8257008;28;20363;-69
2021/10/28 19:47:46;;;;;;;46.10;18.65;;;;;;;;;;8256749;28;20480;-69
2021/10/28 19:51:52;;;;;;;44.05;17.95;;;;;;;;;;8256973;28;20364;-70
2021/10/28 19:56:08;;;;;;;44.85;18.55;;;;;;;;;;8255554;28;20040;-69
2021/10/28 20:00:19;;;;;;;43.83;17.58;;;;;;;;;;8257914;28;20361;-70
2021/10/28 20:04:35;;;;;;;47.38;17.92;;;;;;;;;;8255841;28;20345;-70
2021/10/28 20:13:21;;;;;;;36.92;17.27;;;;;;;;;;8247310;28;20518;-69
2021/10/28 20:21:50;;;;;;;35.17;16.45;;;;;;;;;;8256643;28;20100;-69
2021/10/28 20:25:56;;;;;;;35.90;17.48;;;;;;;;;;8257724;28;20491;-69
2021/10/28 20:30:01;;;;;;;40.85;19.77;;;;;;;;;;8256635;28;20356;-70
2021/10/28 20:34:15;;;;;;;46.15;17.65;;;;;;;;;;8256144;28;20364;-70
2021/10/28 20:38:21;;;;;;;34.22;16.73;;;;;;;;;;8257290;28;20475;-70
2021/10/28 20:42:36;;;;;;;39.22;16.08;;;;;;;;;;8261841;28;20348;-69
2021/10/28 20:46:42;;;;;;;28.08;14.57;;;;;;;;;;8262100;28;20360;-70
2021/10/28 20:50:47;;;;;;;35.47;14.43;;;;;;;;;;8277988;28;20048;-69
2021/10/28 20:54:53;;;;;;;40.95;15.80;;;;;;;;;;8262945;28;20398;-69
2021/10/28 20:58:58;;;;;;;33.90;15.75;;;;;;;;;;8263329;28;20373;-70
2021/10/28 21:03:03;;;;;;;38.03;15.60;;;;;;;;;;8262600;28;20456;-69
2021/10/28 21:07:08;;;;;;;34.90;16.05;;;;;;;;;;8261636;28;20068;-69
2021/10/28 21:11:14;;;;;;;37.63;16.75;;;;;;;;;;8261828;28;20484;-70
2021/10/28 21:15:20;;;;;;;35.78;16.83;;;;;;;;;;8261297;28;20107;-69
2021/10/28 21:19:25;;;;;;;39.63;17.95;;;;;;;;;;8260752;28;20044;-69
2021/10/28 21:23:30;;;;;;;42.15;17.42;;;;;;;;;;8261691;28;20337;-69
2021/10/28 21:27:35;;;;;;;49.70;19.00;;;;;;;;;;8260719;28;20364;-70
2021/10/28 21:31:40;;;;;;;59.00;20.25;;;;;;;;;;8263122;28;20439;-69
2021/10/28 21:35:45;;;;;;;48.67;20.17;;;;;;;;;;8262053;28;20324;-70
2021/10/28 21:39:54;;;;;;;54.20;21.35;;;;;;;;;;8259817;28;20352;-69
2021/10/28 21:44:00;;;;;;;57.20;21.25;;;;;;;;;;8261356;28;20372;-71
2021/10/28 21:48:06;;;;;;;58.30;21.83;;;;;;;;;;8262543;28;20057;-70
2021/10/28 21:52:18;;;;;;;47.22;20.15;;;;;;;;;;8260482;28;20472;-70
2021/10/28 21:56:30;;;;;;;43.70;18.92;;;;;;;;;;8261523;28;20084;-69
2021/10/28 22:00:49;;;;;;;49.13;19.52;;;;;;;;;;8260830;28;20391;-69
2021/10/28 22:05:12;;;;;;;48.50;19.50;;;;;;;;;;8260568;28;20037;-69
2021/10/28 22:26:48;;;;;;;51.08;20.75;;;;;;;;;;8260055;28;20372;-71
2021/10/28 22:30:54;;;;;;;40.40;20.10;;;;;;;;;;8259924;28;20033;-72
2021/10/28 22:35:00;;;;;;;43.58;19.60;;;;;;;;;;8260383;28;20674;-72
2021/10/28 22:39:10;;;;;;;51.22;21.25;;;;;;;;;;8258943;28;20048;-71
2021/10/28 22:43:18;;;;;;;48.30;20.63;;;;;;;;;;8260208;28;20041;-70
2021/10/28 22:47:24;;;;;;;39.22;19.45;;;;;;;;;;8258264;28;20436;-71
2021/10/28 22:51:30;;;;;;;42.75;20.73;;;;;;;;;;8258503;28;20071;-71
2021/10/28 22:55:40;;;;;;;48.95;22.25;;;;;;;;;;8259519;28;20375;-71
2021/10/28 22:59:47;;;;;;;44.28;20.67;;;;;;;;;;8256529;28;20486;-70
2021/10/28 23:08:36;;;;;;;46.45;21.10;;;;;;;;;;8375051;27;1258255;-69
2021/10/28 23:21:41;;;;;;;48.45;20.38;;;;;;;;;;8302126;28;20456;-70
2021/10/28 23:25:46;;;;;;;45.90;19.60;;;;;;;;;;8347008;28;20051;-71
2021/10/28 23:29:52;;;;;;;46.63;19.73;;;;;;;;;;8384655;28;20040;-69
2021/10/28 23:33:57;;;;;;;47.95;19.83;;;;;;;;;;8368097;28;20466;-69
2021/10/28 23:38:03;;;;;;;65.28;28.02;;;;;;;;;;8386286;28;20062;-70
2021/10/28 23:42:08;;;;;;;44.50;21.10;;;;;;;;;;8383531;28;20382;-69
2021/10/28 23:46:13;;;;;;;47.00;20.40;;;;;;;;;;8383838;28;20381;-69
2021/10/28 23:50:18;;;;;;;48.45;20.38;;;;;;;;;;8384636;28;20370;-69
2021/10/28 23:54:24;;;;;;;48.75;19.77;;;;;;;;;;8386166;28;20346;-69
2021/10/28 23:58:31;;;;;;;42.55;19.33;;;;;;;;;;8384267;28;20489;-68
